sensor_id;sensor_type;location;lat;lon;timestamp;pressure;altitude;pressure_sealevel;temperature;humidity
71907;BME280;59781;52.090;5.030;2023-07-08T00:00:51;101709.06;;;22.31;82.79
71907;BME280;59781;52.090;5.030;2023-07-08T00:03:18;101709.66;;;21.90;86.92
71907;BME280;59781;52.090;5.030;2023-07-08T00:05:47;101713.38;;;22.02;85.57
71907;BME280;59781;52.090;5.030;2023-07-08T00:08:20;101700.38;;;21.91;87.13
71907;BME280;59781;52.090;5.030;2023-07-08T00:10:46;101694.41;;;21.76;88.08
71907;BME280;59781;52.090;5.030;2023-07-08T00:13:12;101693.28;;;21.84;87.63
71907;BME280;59781;52.090;5.030;2023-07-08T00:15:40;101681.06;;;21.80;87.56
71907;BME280;59781;52.090;5.030;2023-07-08T00:18:15;101683.84;;;21.98;85.92
71907;BME280;59781;52.090;5.030;2023-07-08T00:20:47;101675.78;;;21.60;88.08
71907;BME280;59781;52.090;5.030;2023-07-08T00:23:14;101677.78;;;21.71;87.68
71907;BME280;59781;52.090;5.030;2023-07-08T00:25:40;101683.31;;;21.89;86.06
71907;BME280;59781;52.090;5.030;2023-07-08T00:28:14;101672.69;;;21.74;86.69
71907;BME280;59781;52.090;5.030;2023-07-08T00:30:42;101673.09;;;21.78;87.04
71907;BME280;59781;52.090;5.030;2023-07-08T00:33:08;101677.34;;;21.74;87.02
71907;BME280;59781;52.090;5.030;2023-07-08T00:35:43;101671.56;;;22.07;83.68
71907;BME280;59781;52.090;5.030;2023-07-08T00:38:22;101668.72;;;21.70;85.83
71907;BME280;59781;52.090;5.030;2023-07-08T00:43:40;101671.06;;;21.67;87.01
71907;BME280;59781;52.090;5.030;2023-07-08T00:46:33;101677.72;;;21.77;85.79
71907;BME280;59781;52.090;5.030;2023-07-08T00:49:23;101666.25;;;21.62;87.82
71907;BME280;59781;52.090;5.030;2023-07-08T00:51:54;101667.31;;;21.61;87.43
71907;BME280;59781;52.090;5.030;2023-07-08T00:54:19;101663.47;;;21.44;88.31
71907;BME280;59781;52.090;5.030;2023-07-08T00:56:56;101662.84;;;21.42;89.01
71907;BME280;59781;52.090;5.030;2023-07-08T00:59:29;101657.66;;;21.59;87.53
71907;BME280;59781;52.090;5.030;2023-07-08T01:02:04;101660.28;;;21.15;92.22
71907;BME280;59781;52.090;5.030;2023-07-08T01:04:44;101659.00;;;21.18;93.20
71907;BME280;59781;52.090;5.030;2023-07-08T01:07:19;101650.88;;;21.36;91.94
71907;BME280;59781;52.090;5.030;2023-07-08T01:09:54;101648.88;;;21.18;94.65
71907;BME280;59781;52.090;5.030;2023-07-08T01:12:31;101657.31;;;21.17;95.10
71907;BME280;59781;52.090;5.030;2023-07-08T01:15:05;101641.63;;;21.31;94.14
71907;BME280;59781;52.090;5.030;2023-07-08T01:17:32;101659.63;;;21.13;95.22
71907;BME280;59781;52.090;5.030;2023-07-08T01:20:03;101652.09;;;21.09;95.47
71907;BME280;59781;52.090;5.030;2023-07-08T01:22:39;101659.94;;;20.67;98.57
71907;BME280;59781;52.090;5.030;2023-07-08T01:25:07;101661.00;;;20.59;100.00
71907;BME280;59781;52.090;5.030;2023-07-08T01:27:39;101646.91;;;20.94;99.54
71907;BME280;59781;52.090;5.030;2023-07-08T01:30:11;101646.53;;;20.90;100.00
71907;BME280;59781;52.090;5.030;2023-07-08T01:32:44;101642.59;;;20.73;100.00
71907;BME280;59781;52.090;5.030;2023-07-08T01:35:14;101644.22;;;20.87;99.77
71907;BME280;59781;52.090;5.030;2023-07-08T01:37:44;101642.75;;;20.47;100.00
71907;BME280;59781;52.090;5.030;2023-07-08T01:40:23;101634.09;;;20.56;100.00
71907;BME280;59781;52.090;5.030;2023-07-08T01:42:50;101645.88;;;20.57;100.00
71907;BME280;59781;52.090;5.030;2023-07-08T01:45:18;101641.34;;;20.18;100.00
71907;BME280;59781;52.090;5.030;2023-07-08T01:48:16;101638.00;;;20.16;100.00
71907;BME280;59781;52.090;5.030;2023-07-08T01:50:56;101630.91;;;19.88;100.00
71907;BME280;59781;52.090;5.030;2023-07-08T01:53:33;101636.38;;;19.88;100.00
71907;BME280;59781;52.090;5.030;2023-07-08T01:56:02;101632.47;;;20.29;100.00
71907;BME280;59781;52.090;5.030;2023-07-08T01:58:29;101634.13;;;20.43;100.00
71907;BME280;59781;52.090;5.030;2023-07-08T02:00:55;101630.19;;;20.19;100.00
71907;BME280;59781;52.090;5.030;2023-07-08T02:03:22;101627.69;;;20.04;100.00
71907;BME280;59781;52.090;5.030;2023-07-08T02:05:48;101623.91;;;20.12;100.00
71907;BME280;59781;52.090;5.030;2023-07-08T02:08:14;101621.59;;;20.09;100.00
71907;BME280;59781;52.090;5.030;2023-07-08T02:10:42;101613.91;;;19.80;100.00
71907;BME280;59781;52.090;5.030;2023-07-08T02:13:09;101602.31;;;19.84;100.00
71907;BME280;59781;52.090;5.030;2023-07-08T02:15:35;101611.66;;;20.28;100.00
71907;BME280;59781;52.090;5.030;2023-07-08T02:18:00;101610.69;;;19.96;100.00
71907;BME280;59781;52.090;5.030;2023-07-08T02:20:26;101608.22;;;19.81;100.00
71907;BME280;59781;52.090;5.030;2023-07-08T02:22:52;101607.09;;;20.02;100.00
71907;BME280;59781;52.090;5.030;2023-07-08T02:25:17;101606.69;;;19.98;100.00
71907;BME280;59781;52.090;5.030;2023-07-08T02:27:44;101601.25;;;19.92;100.00
71907;BME280;59781;52.090;5.030;2023-07-08T02:30:09;101592.03;;;19.86;100.00
71907;BME280;59781;52.090;5.030;2023-07-08T02:32:36;101609.56;;;20.23;100.00
71907;BME280;59781;52.090;5.030;2023-07-08T02:35:07;101599.16;;;19.87;100.00
71907;BME280;59781;52.090;5.030;2023-07-08T02:37:34;101596.25;;;19.69;100.00
71907;BME280;59781;52.090;5.030;2023-07-08T02:40:00;101586.16;;;19.63;100.00
71907;BME280;59781;52.090;5.030;2023-07-08T02:42:26;101587.63;;;19.72;100.00
71907;BME280;59781;52.090;5.030;2023-07-08T02:44:52;101586.59;;;19.60;100.00
71907;BME280;59781;52.090;5.030;2023-07-08T02:47:17;101575.41;;;19.74;100.00
71907;BME280;59781;52.090;5.030;2023-07-08T02:49:43;101576.66;;;19.85;100.00
71907;BME280;59781;52.090;5.030;2023-07-08T02:52:09;101576.09;;;19.57;100.00
71907;BME280;59781;52.090;5.030;2023-07-08T02:54:35;101577.53;;;19.79;100.00
71907;BME280;59781;52.090;5.030;2023-07-08T02:57:00;101587.44;;;19.60;100.00
71907;BME280;59781;52.090;5.030;2023-07-08T02:59:26;101578.38;;;19.73;100.00
71907;BME280;59781;52.090;5.030;2023-07-08T03:01:54;101576.06;;;19.50;100.00
71907;BME280;59781;52.090;5.030;2023-07-08T03:04:20;101577.97;;;19.49;100.00
71907;BME280;59781;52.090;5.030;2023-07-08T03:06:50;101576.91;;;19.64;100.00
71907;BME280;59781;52.090;5.030;2023-07-08T03:09:16;101582.16;;;19.52;100.00
71907;BME280;59781;52.090;5.030;2023-07-08T03:11:43;101580.69;;;19.63;100.00
71907;BME280;59781;52.090;5.030;2023-07-08T03:14:08;101578.59;;;19.45;100.00
71907;BME280;59781;52.090;5.030;2023-07-08T03:16:34;101592.25;;;19.71;100.00
71907;BME280;59781;52.090;5.030;2023-07-08T03:19:00;101591.00;;;19.61;100.00
71907;BME280;59781;52.090;5.030;2023-07-08T03:21:27;101581.28;;;19.85;100.00
71907;BME280;59781;52.090;5.030;2023-07-08T03:23:53;101585.09;;;19.70;100.00
71907;BME280;59781;52.090;5.030;2023-07-08T03:26:25;101582.78;;;19.54;100.00
71907;BME280;59781;52.090;5.030;2023-07-08T03:28:52;101589.53;;;19.38;100.00
71907;BME280;59781;52.090;5.030;2023-07-08T03:31:19;101589.91;;;19.55;100.00
71907;BME280;59781;52.090;5.030;2023-07-08T03:33:45;101583.84;;;19.40;100.00
71907;BME280;59781;52.090;5.030;2023-07-08T03:36:15;101583.22;;;19.44;100.00
71907;BME280;59781;52.090;5.030;2023-07-08T03:38:53;101585.53;;;19.47;100.00
71907;BME280;59781;52.090;5.030;2023-07-08T03:41:21;101587.56;;;19.85;100.00
71907;BME280;59781;52.090;5.030;2023-07-08T03:43:48;101587.63;;;19.72;100.00
71907;BME280;59781;52.090;5.030;2023-07-08T03:46:17;101580.06;;;19.61;100.00
71907;BME280;59781;52.090;5.030;2023-07-08T03:48:44;101584.06;;;19.38;100.00
71907;BME280;59781;52.090;5.030;2023-07-08T03:51:19;101580.06;;;19.41;100.00
71907;BME280;59781;52.090;5.030;2023-07-08T03:53:49;101592.47;;;19.30;100.00
71907;BME280;59781;52.090;5.030;2023-07-08T03:56:16;101583.41;;;19.43;100.00
71907;BME280;59781;52.090;5.030;2023-07-08T03:58:42;101586.16;;;19.36;100.00
71907;BME280;59781;52.090;5.030;2023-07-08T04:01:18;101584.69;;;19.20;100.00
71907;BME280;59781;52.090;5.030;2023-07-08T04:03:47;101588.28;;;19.47;100.00
71907;BME280;59781;52.090;5.030;2023-07-08T04:06:14;101585.31;;;19.49;100.00
71907;BME280;59781;52.090;5.030;2023-07-08T04:08:40;101595.34;;;19.95;100.00
71907;BME280;59781;52.090;5.030;2023-07-08T04:11:06;101594.13;;;19.64;100.00
71907;BME280;59781;52.090;5.030;2023-07-08T04:13:33;101593.31;;;19.37;100.00
71907;BME280;59781;52.090;5.030;2023-07-08T04:16:02;101585.53;;;19.41;100.00
71907;BME280;59781;52.090;5.030;2023-07-08T04:18:31;101591.81;;;19.55;100.00
71907;BME280;59781;52.090;5.030;2023-07-08T04:20:57;101594.75;;;19.80;100.00
71907;BME280;59781;52.090;5.030;2023-07-08T04:23:25;101597.28;;;19.81;100.00
71907;BME280;59781;52.090;5.030;2023-07-08T04:25:54;101593.88;;;19.86;100.00
71907;BME280;59781;52.090;5.030;2023-07-08T04:28:22;101579.59;;;19.90;100.00
71907;BME280;59781;52.090;5.030;2023-07-08T04:30:48;101594.03;;;20.11;100.00
71907;BME280;59781;52.090;5.030;2023-07-08T04:33:15;101585.28;;;19.75;100.00
71907;BME280;59781;52.090;5.030;2023-07-08T04:35:43;101586.50;;;20.06;100.00
71907;BME280;59781;52.090;5.030;2023-07-08T04:38:18;101586.06;;;19.96;100.00
71907;BME280;59781;52.090;5.030;2023-07-08T04:40:50;101599.78;;;19.83;100.00
71907;BME280;59781;52.090;5.030;2023-07-08T04:43:17;101596.91;;;20.29;100.00
71907;BME280;59781;52.090;5.030;2023-07-08T04:45:45;101592.81;;;20.07;100.00
71907;BME280;59781;52.090;5.030;2023-07-08T04:48:17;101593.81;;;20.05;100.00
71907;BME280;59781;52.090;5.030;2023-07-08T04:50:48;101587.06;;;20.15;100.00
71907;BME280;59781;52.090;5.030;2023-07-08T04:53:16;101589.69;;;19.90;100.00
71907;BME280;59781;52.090;5.030;2023-07-08T04:55:45;101589.69;;;19.90;100.00
71907;BME280;59781;52.090;5.030;2023-07-08T04:58:14;101583.00;;;20.30;100.00
71907;BME280;59781;52.090;5.030;2023-07-08T05:00:39;101585.59;;;20.63;100.00
71907;BME280;59781;52.090;5.030;2023-07-08T05:03:05;101584.34;;;20.66;100.00
71907;BME280;59781;52.090;5.030;2023-07-08T05:05:31;101593.41;;;20.67;100.00
71907;BME280;59781;52.090;5.030;2023-07-08T05:07:56;101591.88;;;20.71;100.00
71907;BME280;59781;52.090;5.030;2023-07-08T05:10:22;101591.00;;;21.08;100.00
71907;BME280;59781;52.090;5.030;2023-07-08T05:12:48;101594.31;;;21.42;100.00
71907;BME280;59781;52.090;5.030;2023-07-08T05:15:15;101579.78;;;21.16;100.00
71907;BME280;59781;52.090;5.030;2023-07-08T05:17:42;101581.69;;;21.16;100.00
71907;BME280;59781;52.090;5.030;2023-07-08T05:20:13;101585.97;;;21.05;100.00
71907;BME280;59781;52.090;5.030;2023-07-08T05:22:39;101587.06;;;21.29;100.00
71907;BME280;59781;52.090;5.030;2023-07-08T05:25:06;101590.31;;;21.63;100.00
71907;BME280;59781;52.090;5.030;2023-07-08T05:27:32;101582.91;;;21.88;100.00
71907;BME280;59781;52.090;5.030;2023-07-08T05:30:02;101591.06;;;21.95;100.00
71907;BME280;59781;52.090;5.030;2023-07-08T05:32:29;101578.97;;;22.51;97.60
71907;BME280;59781;52.090;5.030;2023-07-08T05:34:55;101589.63;;;22.11;100.00
71907;BME280;59781;52.090;5.030;2023-07-08T05:37:21;101586.03;;;22.28;97.88
71907;BME280;59781;52.090;5.030;2023-07-08T05:39:51;101586.94;;;23.01;95.46
71907;BME280;59781;52.090;5.030;2023-07-08T05:42:19;101585.19;;;23.30;90.46
71907;BME280;59781;52.090;5.030;2023-07-08T05:44:46;101585.97;;;23.60;89.64
71907;BME280;59781;52.090;5.030;2023-07-08T05:47:12;101581.66;;;24.40;82.19
71907;BME280;59781;52.090;5.030;2023-07-08T05:49:38;101583.22;;;23.72;88.42
71907;BME280;59781;52.090;5.030;2023-07-08T05:52:04;101575.38;;;24.04;85.12
71907;BME280;59781;52.090;5.030;2023-07-08T05:54:31;101573.84;;;23.96;87.49
71907;BME280;59781;52.090;5.030;2023-07-08T05:56:57;101578.75;;;23.47;89.33
71907;BME280;59781;52.090;5.030;2023-07-08T05:59:22;101566.38;;;24.09;86.70
71907;BME280;59781;52.090;5.030;2023-07-08T06:01:48;101570.88;;;24.38;84.06
71907;BME280;59781;52.090;5.030;2023-07-08T06:04:14;101576.66;;;25.10;77.93
71907;BME280;59781;52.090;5.030;2023-07-08T06:06:39;101582.13;;;24.37;83.11
71907;BME280;59781;52.090;5.030;2023-07-08T06:09:05;101587.50;;;24.43;82.00
71907;BME280;59781;52.090;5.030;2023-07-08T06:11:30;101583.97;;;24.59;83.19
71907;BME280;59781;52.090;5.030;2023-07-08T06:13:56;101583.50;;;25.08;77.91
71907;BME280;59781;52.090;5.030;2023-07-08T06:16:23;101585.66;;;25.73;76.83
71907;BME280;59781;52.090;5.030;2023-07-08T06:18:48;101588.13;;;25.91;74.23
71907;BME280;59781;52.090;5.030;2023-07-08T06:21:14;101587.28;;;26.35;71.53
71907;BME280;59781;52.090;5.030;2023-07-08T06:23:40;101591.81;;;26.19;70.80
71907;BME280;59781;52.090;5.030;2023-07-08T06:26:05;101592.94;;;25.45;74.23
71907;BME280;59781;52.090;5.030;2023-07-08T06:28:31;101588.00;;;26.03;68.17
71907;BME280;59781;52.090;5.030;2023-07-08T06:30:57;101588.59;;;26.27;69.70
71907;BME280;59781;52.090;5.030;2023-07-08T06:33:22;101591.84;;;26.24;70.50
71907;BME280;59781;52.090;5.030;2023-07-08T06:35:48;101591.47;;;26.15;66.99
71907;BME280;59781;52.090;5.030;2023-07-08T06:38:14;101595.22;;;26.26;70.33
71907;BME280;59781;52.090;5.030;2023-07-08T06:40:39;101595.94;;;25.44;72.90
71907;BME280;59781;52.090;5.030;2023-07-08T06:43:05;101593.28;;;25.49;71.64
71907;BME280;59781;52.090;5.030;2023-07-08T06:45:43;101585.34;;;26.84;67.03
71907;BME280;59781;52.090;5.030;2023-07-08T06:48:09;101589.59;;;26.92;67.29
71907;BME280;59781;52.090;5.030;2023-07-08T06:50:35;101582.72;;;26.94;66.70
71907;BME280;59781;52.090;5.030;2023-07-08T06:53:00;101586.25;;;26.90;68.70
71907;BME280;59781;52.090;5.030;2023-07-08T06:55:26;101584.75;;;27.36;62.84
71907;BME280;59781;52.090;5.030;2023-07-08T06:57:52;101582.00;;;26.77;68.85
71907;BME280;59781;52.090;5.030;2023-07-08T07:00:18;101578.25;;;27.57;64.15
71907;BME280;59781;52.090;5.030;2023-07-08T07:02:44;101579.97;;;27.26;64.42
71907;BME280;59781;52.090;5.030;2023-07-08T07:05:09;101583.00;;;26.66;66.92
71907;BME280;59781;52.090;5.030;2023-07-08T07:07:35;101581.19;;;26.54;69.30
71907;BME280;59781;52.090;5.030;2023-07-08T07:10:01;101580.94;;;27.84;68.69
71907;BME280;59781;52.090;5.030;2023-07-08T07:12:28;101574.22;;;28.22;64.80
71907;BME280;59781;52.090;5.030;2023-07-08T07:14:54;101571.28;;;28.60;62.48
71907;BME280;59781;52.090;5.030;2023-07-08T07:17:24;101575.00;;;29.01;60.34
71907;BME280;59781;52.090;5.030;2023-07-08T07:19:50;101571.88;;;28.77;60.68
71907;BME280;59781;52.090;5.030;2023-07-08T07:22:16;101569.94;;;27.99;63.87
71907;BME280;59781;52.090;5.030;2023-07-08T07:24:42;101570.38;;;28.39;62.06
71907;BME280;59781;52.090;5.030;2023-07-08T07:27:09;101566.31;;;27.94;62.95
71907;BME280;59781;52.090;5.030;2023-07-08T07:29:43;101567.16;;;28.77;65.95
71907;BME280;59781;52.090;5.030;2023-07-08T07:32:11;101560.25;;;29.00;62.04
71907;BME280;59781;52.090;5.030;2023-07-08T07:34:39;101561.53;;;29.99;59.03
71907;BME280;59781;52.090;5.030;2023-07-08T07:37:05;101552.75;;;29.36;58.87
71907;BME280;59781;52.090;5.030;2023-07-08T07:39:35;101563.31;;;29.34;59.45
71907;BME280;59781;52.090;5.030;2023-07-08T07:42:01;101564.97;;;30.41;56.87
71907;BME280;59781;52.090;5.030;2023-07-08T07:44:27;101563.47;;;30.53;58.92
71907;BME280;59781;52.090;5.030;2023-07-08T07:46:53;101562.75;;;28.81;60.11
71907;BME280;59781;52.090;5.030;2023-07-08T07:49:20;101569.41;;;28.96;59.20
71907;BME280;59781;52.090;5.030;2023-07-08T07:51:46;101561.03;;;28.80;60.49
71907;BME280;59781;52.090;5.030;2023-07-08T07:54:11;101557.91;;;29.99;58.77
71907;BME280;59781;52.090;5.030;2023-07-08T07:56:37;101562.78;;;30.33;56.66
71907;BME280;59781;52.090;5.030;2023-07-08T07:59:03;101562.03;;;30.12;54.42
71907;BME280;59781;52.090;5.030;2023-07-08T08:01:29;101557.44;;;29.72;57.69
71907;BME280;59781;52.090;5.030;2023-07-08T08:03:55;101562.78;;;30.27;54.62
71907;BME280;59781;52.090;5.030;2023-07-08T08:06:20;101558.94;;;30.23;53.00
71907;BME280;59781;52.090;5.030;2023-07-08T08:08:46;101559.13;;;29.42;53.88
71907;BME280;59781;52.090;5.030;2023-07-08T08:11:13;101552.28;;;30.19;55.03
71907;BME280;59781;52.090;5.030;2023-07-08T08:13:38;101558.00;;;30.38;55.86
71907;BME280;59781;52.090;5.030;2023-07-08T08:16:04;101551.06;;;30.41;52.70
71907;BME280;59781;52.090;5.030;2023-07-08T08:18:30;101558.88;;;30.83;52.55
71907;BME280;59781;52.090;5.030;2023-07-08T08:20:56;101559.75;;;30.78;52.03
71907;BME280;59781;52.090;5.030;2023-07-08T08:23:22;101563.38;;;30.24;55.24
71907;BME280;59781;52.090;5.030;2023-07-08T08:25:48;101568.66;;;30.75;54.53
71907;BME280;59781;52.090;5.030;2023-07-08T08:28:15;101564.50;;;31.07;50.75
71907;BME280;59781;52.090;5.030;2023-07-08T08:30:41;101573.59;;;31.52;50.96
71907;BME280;59781;52.090;5.030;2023-07-08T08:33:07;101565.06;;;31.96;49.91
71907;BME280;59781;52.090;5.030;2023-07-08T08:35:33;101577.38;;;31.90;48.57
71907;BME280;59781;52.090;5.030;2023-07-08T08:37:58;101584.81;;;31.71;50.62
71907;BME280;59781;52.090;5.030;2023-07-08T08:40:24;101569.16;;;31.75;48.94
71907;BME280;59781;52.090;5.030;2023-07-08T08:43:00;101577.59;;;30.67;51.78
71907;BME280;59781;52.090;5.030;2023-07-08T08:45:34;101577.00;;;31.44;51.20
71907;BME280;59781;52.090;5.030;2023-07-08T08:48:10;101583.69;;;31.43;51.54
71907;BME280;59781;52.090;5.030;2023-07-08T08:50:47;101589.69;;;31.55;50.32
71907;BME280;59781;52.090;5.030;2023-07-08T08:53:19;101590.28;;;31.52;52.41
71907;BME280;59781;52.090;5.030;2023-07-08T08:55:56;101584.84;;;32.18;50.67
71907;BME280;59781;52.090;5.030;2023-07-08T08:58:43;101582.41;;;32.12;52.19
71907;BME280;59781;52.090;5.030;2023-07-08T09:01:16;101578.72;;;32.59;52.29
71907;BME280;59781;52.090;5.030;2023-07-08T09:03:52;101588.41;;;33.18;47.73
71907;BME280;59781;52.090;5.030;2023-07-08T09:06:26;101580.31;;;32.22;50.95
71907;BME280;59781;52.090;5.030;2023-07-08T09:08:57;101578.56;;;31.55;49.76
71907;BME280;59781;52.090;5.030;2023-07-08T09:11:52;101579.94;;;32.29;50.22
71907;BME280;59781;52.090;5.030;2023-07-08T09:14:28;101577.56;;;32.41;47.29
71907;BME280;59781;52.090;5.030;2023-07-08T09:19:59;101569.91;;;33.22;44.72
71907;BME280;59781;52.090;5.030;2023-07-08T09:23:14;101571.78;;;32.75;45.00
71907;BME280;59781;52.090;5.030;2023-07-08T09:28:45;101578.56;;;33.40;46.59
71907;BME280;59781;52.090;5.030;2023-07-08T09:36:34;101577.91;;;33.29;45.37
71907;BME280;59781;52.090;5.030;2023-07-08T09:39:10;101581.88;;;32.52;44.35
71907;BME280;59781;52.090;5.030;2023-07-08T09:41:42;101575.50;;;32.90;46.78
71907;BME280;59781;52.090;5.030;2023-07-08T09:46:44;101583.06;;;34.50;40.45
71907;BME280;59781;52.090;5.030;2023-07-08T09:49:20;101575.28;;;33.51;40.46
71907;BME280;59781;52.090;5.030;2023-07-08T09:51:52;101583.59;;;34.11;40.65
71907;BME280;59781;52.090;5.030;2023-07-08T09:54:23;101582.03;;;32.99;43.54
71907;BME280;59781;52.090;5.030;2023-07-08T09:57:00;101586.78;;;33.77;41.68
71907;BME280;59781;52.090;5.030;2023-07-08T09:59:39;101589.28;;;33.32;42.69
71907;BME280;59781;52.090;5.030;2023-07-08T10:02:30;101583.47;;;33.29;41.47
71907;BME280;59781;52.090;5.030;2023-07-08T10:05:13;101585.72;;;33.46;43.12
71907;BME280;59781;52.090;5.030;2023-07-08T10:07:45;101575.56;;;33.36;41.01
71907;BME280;59781;52.090;5.030;2023-07-08T10:10:17;101577.16;;;33.56;41.11
71907;BME280;59781;52.090;5.030;2023-07-08T10:13:21;101584.22;;;34.36;38.11
71907;BME280;59781;52.090;5.030;2023-07-08T10:18:42;101571.84;;;34.64;38.58
71907;BME280;59781;52.090;5.030;2023-07-08T10:21:43;101582.63;;;35.16;38.24
71907;BME280;59781;52.090;5.030;2023-07-08T10:25:02;101573.34;;;35.06;38.11
71907;BME280;59781;52.090;5.030;2023-07-08T10:27:39;101578.03;;;35.20;38.63
71907;BME280;59781;52.090;5.030;2023-07-08T10:30:25;101574.06;;;34.54;37.55
71907;BME280;59781;52.090;5.030;2023-07-08T10:36:49;101561.22;;;35.20;36.76
71907;BME280;59781;52.090;5.030;2023-07-08T10:39:23;101566.81;;;35.20;36.10
71907;BME280;59781;52.090;5.030;2023-07-08T10:43:03;101554.69;;;35.24;35.16
71907;BME280;59781;52.090;5.030;2023-07-08T10:57:55;101550.09;;;35.51;33.71
71907;BME280;59781;52.090;5.030;2023-07-08T11:00:45;101559.31;;;36.39;34.41
71907;BME280;59781;52.090;5.030;2023-07-08T11:06:18;101562.56;;;35.84;34.17
71907;BME280;59781;52.090;5.030;2023-07-08T11:08:55;101556.75;;;35.72;34.65
71907;BME280;59781;52.090;5.030;2023-07-08T11:11:47;101557.03;;;35.93;35.38
71907;BME280;59781;52.090;5.030;2023-07-08T11:14:40;101559.66;;;35.58;35.63
71907;BME280;59781;52.090;5.030;2023-07-08T11:17:22;101553.78;;;36.26;34.57
71907;BME280;59781;52.090;5.030;2023-07-08T11:26:31;101562.91;;;36.66;34.93
71907;BME280;59781;52.090;5.030;2023-07-08T11:29:04;101562.13;;;36.48;34.45
71907;BME280;59781;52.090;5.030;2023-07-08T11:31:40;101565.00;;;35.77;35.64
71907;BME280;59781;52.090;5.030;2023-07-08T11:34:11;101556.56;;;36.17;33.56
71907;BME280;59781;52.090;5.030;2023-07-08T11:36:40;101552.81;;;36.30;33.90
71907;BME280;59781;52.090;5.030;2023-07-08T11:39:32;101555.91;;;36.03;33.70
71907;BME280;59781;52.090;5.030;2023-07-08T11:42:17;101567.34;;;35.84;35.61
71907;BME280;59781;52.090;5.030;2023-07-08T11:44:51;101551.56;;;35.57;37.18
71907;BME280;59781;52.090;5.030;2023-07-08T11:47:26;101559.28;;;35.82;37.86
71907;BME280;59781;52.090;5.030;2023-07-08T11:50:01;101554.13;;;35.76;36.91
71907;BME280;59781;52.090;5.030;2023-07-08T11:52:29;101552.00;;;35.81;37.02
71907;BME280;59781;52.090;5.030;2023-07-08T11:55:14;101542.28;;;36.79;34.42
71907;BME280;59781;52.090;5.030;2023-07-08T11:57:53;101546.78;;;36.97;37.02
71907;BME280;59781;52.090;5.030;2023-07-08T12:00:25;101537.69;;;36.83;36.01
71907;BME280;59781;52.090;5.030;2023-07-08T12:02:58;101544.88;;;36.24;37.09
71907;BME280;59781;52.090;5.030;2023-07-08T12:05:30;101537.81;;;36.35;36.93
71907;BME280;59781;52.090;5.030;2023-07-08T12:07:58;101539.16;;;36.72;36.17
71907;BME280;59781;52.090;5.030;2023-07-08T12:10:34;101535.16;;;36.30;36.01
71907;BME280;59781;52.090;5.030;2023-07-08T12:13:12;101538.81;;;36.65;33.95
71907;BME280;59781;52.090;5.030;2023-07-08T12:15:39;101538.94;;;36.34;31.71
71907;BME280;59781;52.090;5.030;2023-07-08T12:20:37;101532.16;;;36.26;35.60
71907;BME280;59781;52.090;5.030;2023-07-08T12:23:12;101532.22;;;36.61;33.73
71907;BME280;59781;52.090;5.030;2023-07-08T12:25:40;101528.59;;;36.52;34.01
71907;BME280;59781;52.090;5.030;2023-07-08T12:28:05;101524.91;;;36.25;36.23
71907;BME280;59781;52.090;5.030;2023-07-08T12:30:32;101528.59;;;36.52;33.92
71907;BME280;59781;52.090;5.030;2023-07-08T12:33:00;101521.78;;;36.09;34.87
71907;BME280;59781;52.090;5.030;2023-07-08T12:35:34;101524.63;;;36.35;34.49
71907;BME280;59781;52.090;5.030;2023-07-08T12:40:53;101516.31;;;36.13;37.31
71907;BME280;59781;52.090;5.030;2023-07-08T12:43:20;101518.97;;;37.04;34.34
71907;BME280;59781;52.090;5.030;2023-07-08T12:45:46;101512.41;;;36.74;33.13
71907;BME280;59781;52.090;5.030;2023-07-08T12:48:12;101516.56;;;36.51;31.60
71907;BME280;59781;52.090;5.030;2023-07-08T12:50:38;101515.00;;;36.28;33.00
71907;BME280;59781;52.090;5.030;2023-07-08T12:53:05;101512.25;;;36.54;33.90
71907;BME280;59781;52.090;5.030;2023-07-08T12:55:40;101518.00;;;37.09;29.26
71907;BME280;59781;52.090;5.030;2023-07-08T12:58:24;101515.56;;;37.46;29.05
71907;BME280;59781;52.090;5.030;2023-07-08T13:00:54;101511.66;;;38.06;27.98
71907;BME280;59781;52.090;5.030;2023-07-08T13:03:27;101500.94;;;37.14;28.33
71907;BME280;59781;52.090;5.030;2023-07-08T13:05:58;101507.59;;;37.10;27.64
71907;BME280;59781;52.090;5.030;2023-07-08T13:08:36;101510.50;;;37.77;29.76
71907;BME280;59781;52.090;5.030;2023-07-08T13:11:06;101510.63;;;37.81;25.93
71907;BME280;59781;52.090;5.030;2023-07-08T13:13:51;101504.47;;;36.94;27.38
71907;BME280;59781;52.090;5.030;2023-07-08T13:16:29;101505.47;;;36.29;29.00
71907;BME280;59781;52.090;5.030;2023-07-08T13:18:59;101510.75;;;36.65;27.18
71907;BME280;59781;52.090;5.030;2023-07-08T13:21:26;101510.41;;;36.32;27.22
71907;BME280;59781;52.090;5.030;2023-07-08T13:23:54;101508.78;;;36.57;29.70
71907;BME280;59781;52.090;5.030;2023-07-08T13:26:23;101510.56;;;37.04;29.75
71907;BME280;59781;52.090;5.030;2023-07-08T13:29:10;101503.63;;;37.02;28.05
71907;BME280;59781;52.090;5.030;2023-07-08T13:31:39;101510.19;;;38.00;28.12
71907;BME280;59781;52.090;5.030;2023-07-08T13:34:09;101504.88;;;37.39;27.54
71907;BME280;59781;52.090;5.030;2023-07-08T13:36:44;101501.38;;;37.72;24.79
71907;BME280;59781;52.090;5.030;2023-07-08T13:39:24;101509.81;;;37.80;26.37
71907;BME280;59781;52.090;5.030;2023-07-08T13:41:54;101511.81;;;37.33;27.05
71907;BME280;59781;52.090;5.030;2023-07-08T13:44:21;101503.84;;;37.44;27.51
71907;BME280;59781;52.090;5.030;2023-07-08T13:49:27;101512.19;;;37.14;28.17
71907;BME280;59781;52.090;5.030;2023-07-08T13:52:23;101513.31;;;37.30;28.08
71907;BME280;59781;52.090;5.030;2023-07-08T13:54:52;101498.22;;;36.71;29.64
71907;BME280;59781;52.090;5.030;2023-07-08T13:57:32;101489.06;;;37.17;29.81
71907;BME280;59781;52.090;5.030;2023-07-08T14:00:00;101502.47;;;36.94;29.50